createdAt,value
2023-04-24T00:02:25.287Z,11.30
2023-04-24T00:04:52.426Z,11.60
2023-04-24T00:07:21.110Z,10.30
2023-04-24T00:09:48.019Z,10.70
2023-04-24T00:12:14.869Z,10.50
2023-04-24T00:14:41.742Z,11.00
2023-04-24T00:17:08.746Z,10.30
2023-04-24T00:19:35.824Z,11.20
2023-04-24T00:22:03.876Z,11.60
2023-04-24T00:24:30.957Z,12.60
2023-04-24T00:26:57.943Z,11.50
2023-04-24T00:29:24.798Z,13.00
2023-04-24T00:31:51.941Z,12.90
2023-04-24T00:34:19.328Z,11.60
2023-04-24T00:36:47.281Z,13.00
2023-04-24T00:39:14.097Z,13.20
2023-04-24T00:41:40.917Z,13.10
2023-04-24T00:44:08.357Z,12.70
2023-04-24T00:46:36.176Z,12.40
2023-04-24T00:49:03.128Z,12.00
2023-04-24T00:51:31.896Z,13.50
2023-04-24T00:53:58.688Z,14.30
2023-04-24T00:56:26.261Z,13.40
2023-04-24T00:58:53.216Z,13.50
2023-04-24T01:01:23.281Z,11.20
2023-04-24T01:03:52.363Z,13.30
2023-04-24T01:06:19.871Z,13.60
2023-04-24T01:08:46.820Z,14.50
2023-04-24T01:11:13.614Z,13.80
2023-04-24T01:13:40.466Z,11.60
2023-04-24T01:16:07.334Z,13.80
2023-04-24T01:18:34.866Z,16.40
2023-04-24T01:21:02.579Z,10.70
2023-04-24T01:23:31.676Z,13.70
2023-04-24T01:25:58.548Z,13.90
2023-04-24T01:28:26.442Z,14.60
2023-04-24T01:30:53.764Z,14.70
2023-04-24T01:33:23.979Z,12.90
2023-04-24T01:35:51.437Z,13.60
2023-04-24T01:38:18.359Z,12.00
2023-04-24T01:40:45.250Z,16.00
2023-04-24T01:43:12.974Z,11.10
2023-04-24T01:45:39.785Z,12.10
2023-04-24T01:48:06.689Z,11.20
2023-04-24T01:50:33.545Z,13.50
2023-04-24T01:53:00.499Z,12.20
2023-04-24T01:55:27.384Z,13.30
2023-04-24T01:57:54.292Z,11.60
2023-04-24T02:00:21.231Z,12.30
2023-04-24T02:02:48.647Z,12.50
2023-04-24T02:05:16.097Z,12.50
2023-04-24T02:07:43.004Z,14.40
2023-04-24T02:10:10.560Z,14.80
2023-04-24T02:12:37.457Z,11.40
2023-04-24T02:15:04.898Z,13.50
2023-04-24T02:17:32.055Z,11.30
2023-04-24T02:19:59.100Z,13.40
2023-04-24T02:22:25.948Z,14.50
2023-04-24T02:24:53.424Z,11.60
2023-04-24T02:27:20.370Z,13.70
2023-04-24T02:29:47.226Z,14.50
2023-04-24T02:32:16.687Z,14.40
2023-04-24T02:34:44.183Z,14.40
2023-04-24T02:37:12.945Z,12.00
2023-04-24T02:39:39.972Z,13.40
2023-04-24T02:42:09.053Z,12.00
2023-04-24T02:44:36.231Z,16.00
2023-04-24T02:47:03.109Z,13.10
2023-04-24T02:49:31.188Z,11.90
2023-04-24T02:51:58.015Z,12.20
2023-04-24T02:54:24.860Z,11.00
2023-04-24T02:56:51.678Z,11.90
2023-04-24T02:59:18.484Z,11.50
2023-04-24T03:01:45.518Z,11.10
2023-04-24T03:04:12.880Z,12.50
2023-04-24T03:06:39.964Z,13.70
2023-04-24T03:09:06.829Z,12.80
2023-04-24T03:11:33.831Z,12.30
2023-04-24T03:14:01.180Z,13.00
2023-04-24T03:16:28.122Z,15.10
2023-04-24T03:18:55.950Z,12.40
2023-04-24T03:21:24.345Z,14.50
2023-04-24T03:23:51.302Z,14.70
2023-04-24T03:26:18.127Z,11.50
2023-04-24T03:31:22.466Z,14.90
2023-04-24T03:33:49.374Z,16.40
2023-04-24T03:36:16.735Z,13.60
2023-04-24T03:38:44.252Z,17.70
2023-04-24T03:41:24.231Z,15.50
2023-04-24T03:43:55.779Z,13.00
2023-04-24T03:46:22.739Z,15.00
2023-04-24T03:48:55.030Z,14.40
2023-04-24T03:51:25.123Z,14.60
2023-04-24T03:53:53.561Z,14.50
2023-04-24T03:56:21.870Z,14.70
2023-04-24T03:58:48.733Z,15.70
2023-04-24T04:01:17.260Z,14.90
2023-04-24T04:03:55.362Z,18.00
2023-04-24T04:06:24.572Z,13.60
2023-04-24T04:08:52.566Z,13.60
2023-04-24T04:11:19.479Z,16.90
2023-04-24T04:13:48.874Z,12.10
2023-04-24T04:16:19.863Z,15.30
2023-04-24T04:18:48.058Z,13.10
2023-04-24T04:21:15.689Z,12.90
2023-04-24T04:23:43.150Z,14.30
2023-04-24T04:26:15.241Z,14.20
2023-04-24T04:28:57.091Z,13.60
2023-04-24T04:31:24.453Z,12.30
2023-04-24T04:33:51.478Z,12.00
2023-04-24T04:36:18.591Z,13.20
2023-04-24T04:38:48.512Z,12.90
2023-04-24T04:41:42.183Z,12.80
2023-04-24T04:44:09.957Z,12.80
2023-04-24T04:46:38.534Z,15.60
2023-04-24T04:49:35.271Z,12.00
2023-04-24T04:52:02.627Z,14.10
2023-04-24T04:54:29.486Z,16.50
2023-04-24T04:56:58.358Z,14.70
2023-04-24T04:59:25.843Z,15.30
2023-04-24T05:01:57.525Z,12.10
2023-04-24T05:04:24.684Z,14.00
2023-04-24T05:06:52.241Z,12.50
2023-04-24T05:09:19.603Z,14.80
2023-04-24T05:11:55.509Z,13.10
2023-04-24T05:14:23.139Z,13.40
2023-04-24T05:16:50.137Z,11.60
2023-04-24T05:19:17.531Z,13.40
2023-04-24T05:21:46.457Z,13.90
2023-04-24T05:24:13.336Z,10.80
2023-04-24T05:26:53.166Z,10.20
2023-04-24T05:29:23.959Z,10.30
2023-04-24T05:31:51.163Z,9.90
2023-04-24T05:34:18.401Z,12.40
2023-04-24T05:36:45.881Z,10.40
2023-04-24T05:39:12.788Z,10.80
2023-04-24T05:41:39.838Z,11.30
2023-04-24T05:44:06.692Z,9.20
2023-04-24T05:46:33.668Z,11.60
2023-04-24T05:49:00.912Z,10.60
2023-04-24T05:51:27.838Z,12.10
2023-04-24T05:53:54.736Z,10.70
2023-04-24T05:56:21.866Z,11.20
2023-04-24T05:58:49.326Z,11.40
2023-04-24T06:01:16.613Z,10.00
2023-04-24T06:03:44.751Z,10.00
2023-04-24T06:06:11.626Z,9.90
2023-04-24T06:08:38.511Z,14.30
2023-04-24T06:11:05.593Z,11.10
2023-04-24T06:13:32.831Z,10.60
2023-04-24T06:16:18.328Z,9.10
2023-04-24T06:18:50.183Z,9.70
2023-04-24T06:21:17.859Z,10.60
2023-04-24T06:23:47.494Z,11.50
2023-04-24T06:26:15.705Z,12.70
2023-04-24T06:28:42.567Z,9.70
2023-04-24T06:31:09.515Z,9.30
2023-04-24T06:33:36.413Z,10.30
2023-04-24T06:36:05.050Z,11.60
2023-04-24T06:38:32.135Z,11.60
2023-04-24T06:40:59.146Z,9.20
2023-04-24T06:43:25.995Z,10.60
2023-04-24T06:45:53.052Z,9.90
2023-04-24T06:48:20.034Z,12.50
2023-04-24T06:50:47.961Z,12.50
2023-04-24T06:53:15.538Z,9.50
2023-04-24T06:55:43.089Z,9.70
2023-04-24T06:58:10.378Z,10.30
2023-04-24T07:00:37.241Z,12.00
2023-04-24T07:03:06.440Z,9.70
2023-04-24T07:05:34.819Z,10.40
2023-04-24T07:08:02.571Z,11.10
2023-04-24T07:10:29.664Z,8.70
2023-04-24T07:12:59.831Z,12.70
2023-04-24T07:15:26.780Z,9.80
2023-04-24T07:17:53.725Z,10.50
2023-04-24T07:20:20.980Z,10.50
2023-04-24T07:22:49.233Z,8.90
2023-04-24T07:25:16.095Z,8.00
2023-04-24T07:27:42.915Z,9.10
2023-04-24T07:30:10.657Z,9.00
2023-04-24T07:32:37.506Z,6.70
2023-04-24T07:35:04.527Z,8.30
2023-04-24T07:37:31.489Z,6.10
2023-04-24T07:39:58.393Z,8.20
2023-04-24T07:42:25.182Z,5.70
2023-04-24T07:44:52.288Z,5.90
2023-04-24T07:47:19.060Z,5.60
2023-04-24T07:49:46.083Z,7.80
2023-04-24T07:52:13.039Z,13.10
2023-04-24T07:54:39.940Z,5.90
2023-04-24T07:57:07.929Z,8.30
2023-04-24T07:59:35.259Z,9.00
2023-04-24T08:02:02.857Z,7.40
2023-04-24T08:04:29.802Z,6.40
2023-04-24T08:06:57.046Z,7.00
2023-04-24T08:09:24.591Z,5.90
2023-04-24T08:11:52.761Z,5.60
2023-04-24T08:14:19.652Z,3.90
2023-04-24T08:16:46.623Z,4.50
2023-04-24T08:19:13.452Z,5.90
2023-04-24T08:21:40.428Z,6.90
2023-04-24T08:24:09.068Z,7.90
2023-04-24T08:26:35.875Z,6.40
2023-04-24T08:29:03.114Z,7.70
2023-04-24T08:31:30.189Z,4.80
2023-04-24T08:33:57.055Z,5.50
2023-04-24T08:36:26.493Z,10.10
2023-04-24T08:39:00.136Z,6.00
2023-04-24T08:41:28.083Z,4.70
2023-04-24T08:43:56.247Z,6.10
2023-04-24T08:46:23.154Z,6.20
2023-04-24T08:48:50.017Z,5.40
2023-04-24T08:51:16.825Z,4.10
2023-04-24T08:53:43.751Z,8.00
2023-04-24T08:56:10.699Z,6.40
2023-04-24T08:58:37.648Z,5.30
2023-04-24T09:01:04.629Z,6.40
2023-04-24T09:03:31.670Z,5.20
2023-04-24T09:05:58.788Z,7.00
2023-04-24T09:08:26.875Z,5.20
2023-04-24T09:10:54.093Z,5.70
2023-04-24T09:13:21.272Z,6.00
2023-04-24T09:15:48.108Z,4.90
2023-04-24T09:18:15.053Z,5.50
2023-04-24T09:21:01.504Z,4.90
2023-04-24T09:23:29.856Z,5.00
2023-04-24T09:25:57.616Z,4.80
2023-04-24T09:28:33.016Z,8.70
2023-04-24T09:31:19.350Z,5.30
2023-04-24T09:34:01.838Z,5.70
2023-04-24T09:36:38.202Z,7.10
2023-04-24T09:39:06.552Z,6.40
2023-04-24T09:41:33.590Z,9.80
2023-04-24T09:44:17.244Z,4.60
2023-04-24T09:46:45.738Z,4.40
2023-04-24T09:49:17.332Z,5.70
2023-04-24T09:51:44.230Z,5.20
2023-04-24T09:54:18.595Z,4.60
2023-04-24T09:56:48.838Z,4.60
2023-04-24T09:59:16.597Z,7.50
2023-04-24T10:01:46.797Z,4.90
2023-04-24T10:04:21.404Z,5.00
2023-04-24T10:06:50.091Z,5.10
2023-04-24T10:09:17.854Z,6.20
2023-04-24T10:11:46.351Z,4.60
2023-04-24T10:14:14.183Z,5.70
2023-04-24T10:16:41.530Z,5.00
2023-04-24T10:19:08.729Z,6.60
2023-04-24T10:21:35.952Z,5.20
2023-04-24T10:24:05.172Z,6.60
2023-04-24T10:26:32.374Z,5.50
2023-04-24T10:28:59.988Z,8.50
2023-04-24T10:31:26.912Z,6.20
2023-04-24T10:33:54.044Z,7.60
2023-04-24T10:36:20.838Z,6.40
2023-04-24T10:38:47.624Z,5.00
2023-04-24T10:41:20.706Z,4.80
2023-04-24T10:43:49.642Z,7.60
2023-04-24T10:46:22.868Z,7.90
2023-04-24T10:48:56.481Z,5.30
2023-04-24T10:51:24.233Z,5.10
2023-04-24T10:53:51.786Z,5.80
2023-04-24T10:56:18.971Z,6.10
2023-04-24T10:58:50.761Z,5.20
2023-04-24T11:01:33.945Z,6.20
2023-04-24T11:04:03.851Z,5.60
2023-04-24T11:06:35.938Z,5.20
2023-04-24T11:09:14.197Z,4.90
2023-04-24T11:11:46.200Z,5.00
2023-04-24T11:14:16.082Z,4.30
2023-04-24T11:16:52.678Z,4.80
2023-04-24T11:19:26.937Z,5.50
2023-04-24T11:22:02.551Z,5.50
2023-04-24T11:24:32.621Z,4.70
2023-04-24T11:27:14.948Z,5.00
2023-04-24T11:29:46.187Z,5.00
2023-04-24T11:32:35.066Z,4.60
2023-04-24T11:35:09.484Z,5.60
2023-04-24T11:40:26.919Z,5.90
2023-04-24T11:42:56.579Z,5.80
2023-04-24T11:45:25.989Z,6.60
2023-04-24T11:47:53.152Z,6.40
2023-04-24T11:50:22.971Z,5.80
2023-04-24T11:52:50.855Z,5.00
2023-04-24T12:08:00.505Z,4.20
2023-04-24T12:10:29.174Z,6.00
2023-04-24T12:12:56.992Z,5.20
2023-04-24T12:15:23.993Z,4.10
2023-04-24T12:17:54.732Z,6.90
2023-04-24T12:20:29.083Z,4.90
2023-04-24T12:22:57.158Z,4.90
2023-04-24T12:25:25.553Z,6.20
2023-04-24T12:27:56.943Z,5.80
2023-04-24T12:30:28.451Z,5.30
2023-04-24T12:32:56.130Z,6.20
2023-04-24T12:35:24.283Z,5.50
2023-04-24T12:37:51.445Z,13.10
2023-04-24T12:40:19.184Z,6.20
2023-04-24T12:42:50.495Z,5.90
2023-04-24T12:45:18.239Z,5.20
2023-04-24T12:47:45.987Z,5.30
2023-04-24T12:50:14.720Z,4.50
2023-04-24T12:52:41.771Z,5.50
2023-04-24T12:55:09.146Z,5.30
2023-04-24T12:57:37.056Z,5.50
2023-04-24T13:00:04.607Z,6.50
2023-04-24T13:02:32.716Z,5.10
2023-04-24T13:04:59.887Z,5.10
2023-04-24T13:07:27.099Z,6.30
2023-04-24T13:09:55.042Z,4.70
2023-04-24T13:12:22.323Z,5.40
2023-04-24T13:14:49.346Z,6.90
2023-04-24T13:17:16.522Z,4.90
2023-04-24T13:19:44.516Z,7.60
2023-04-24T13:22:12.153Z,7.60
2023-04-24T13:24:40.039Z,5.40
2023-04-24T13:27:07.117Z,5.10
2023-04-24T13:29:33.897Z,5.50
2023-04-24T13:32:00.831Z,7.00
2023-04-24T13:34:28.524Z,9.30
2023-04-24T13:36:57.178Z,5.30
2023-04-24T13:39:24.325Z,5.20
2023-04-24T13:41:51.307Z,6.00
2023-04-24T13:44:18.706Z,5.80
2023-04-24T13:46:46.610Z,4.30
2023-04-24T13:49:14.112Z,4.50
2023-04-24T13:51:41.163Z,7.50
2023-04-24T13:54:07.990Z,4.50
2023-04-24T13:56:34.997Z,6.30
2023-04-24T13:59:02.045Z,4.70
2023-04-24T14:01:28.959Z,4.60
2023-04-24T14:03:56.980Z,4.40
2023-04-24T14:06:24.260Z,4.80
2023-04-24T14:08:51.463Z,4.20
2023-04-24T14:11:19.393Z,5.60
2023-04-24T14:13:46.865Z,4.90
2023-04-24T14:16:14.142Z,7.10
2023-04-24T14:18:41.255Z,6.30
2023-04-24T14:21:08.536Z,5.40
2023-04-24T14:23:35.530Z,5.20
2023-04-24T14:26:02.397Z,4.60
2023-04-24T14:28:29.254Z,5.10
2023-04-24T14:30:56.362Z,5.60
2023-04-24T14:33:23.337Z,6.20
2023-04-24T14:35:50.486Z,4.70
2023-04-24T14:38:17.421Z,4.10
2023-04-24T14:41:05.496Z,4.80
2023-04-24T14:43:31.309Z,5.20
2023-04-24T14:45:58.189Z,11.60
2023-04-24T14:48:25.077Z,4.40
2023-04-24T14:50:52.064Z,4.10
2023-04-24T14:53:19.888Z,4.40
2023-04-24T14:55:46.831Z,5.00
2023-04-24T14:58:13.780Z,6.30
2023-04-24T15:00:40.887Z,4.60
2023-04-24T15:03:08.577Z,6.70
2023-04-24T15:05:35.971Z,4.60
2023-04-24T15:08:02.999Z,5.50
2023-04-24T15:10:30.787Z,5.70
2023-04-24T15:12:57.906Z,4.60
2023-04-24T15:15:24.966Z,7.10
2023-04-24T15:17:51.938Z,5.30
2023-04-24T15:20:19.262Z,6.00
2023-04-24T15:22:46.447Z,5.50
2023-04-24T15:25:13.329Z,5.00
2023-04-24T15:27:43.931Z,6.10
2023-04-24T15:30:11.671Z,5.10
2023-04-24T15:32:38.886Z,4.10
2023-04-24T15:35:08.955Z,5.40
2023-04-24T15:37:40.958Z,4.10
2023-04-24T15:40:08.802Z,4.20
2023-04-24T15:42:36.290Z,5.70
2023-04-24T15:45:04.534Z,4.50
2023-04-24T15:47:31.523Z,4.90
2023-04-24T15:49:58.728Z,4.20
2023-04-24T15:52:25.885Z,4.00
2023-04-24T15:54:52.858Z,3.50
2023-04-24T15:57:19.711Z,4.20
2023-04-24T15:59:46.700Z,5.40
2023-04-24T16:02:19.481Z,3.90
2023-04-24T16:04:49.818Z,6.30
2023-04-24T16:07:18.199Z,5.50
2023-04-24T16:09:45.322Z,4.30
2023-04-24T16:12:12.424Z,5.70
2023-04-24T16:14:39.416Z,4.70
2023-04-24T16:17:06.907Z,5.00
2023-04-24T16:19:34.685Z,4.50
2023-04-24T16:22:02.084Z,5.40
2023-04-24T16:24:29.118Z,4.70
2023-04-24T16:26:56.486Z,5.50
2023-04-24T16:29:23.405Z,4.90
2023-04-24T16:31:50.797Z,5.10
2023-04-24T16:34:17.826Z,5.00
2023-04-24T16:36:44.687Z,5.20
2023-04-24T16:39:11.880Z,5.40
2023-04-24T16:41:39.417Z,6.00
2023-04-24T16:44:06.494Z,5.20
2023-04-24T16:46:33.396Z,5.40
2023-04-24T16:49:00.421Z,5.10
2023-04-24T16:51:27.954Z,6.70
2023-04-24T16:53:55.045Z,9.30
2023-04-24T16:56:21.884Z,6.60
2023-04-24T16:58:48.893Z,8.40
2023-04-24T17:01:16.076Z,13.00
2023-04-24T17:03:43.053Z,20.50
2023-04-24T17:06:10.419Z,15.80
2023-04-24T17:08:37.206Z,14.90
2023-04-24T17:11:04.270Z,12.30
2023-04-24T17:13:31.135Z,11.10
2023-04-24T17:15:57.956Z,9.50
2023-04-24T17:18:24.881Z,10.50
2023-04-24T17:20:51.736Z,9.80
2023-04-24T17:23:18.576Z,7.40
2023-04-24T17:25:45.494Z,7.30
2023-04-24T17:28:31.409Z,7.70
2023-04-24T17:30:58.728Z,8.80
2023-04-24T17:33:26.319Z,7.10
2023-04-24T17:35:53.238Z,8.30
2023-04-24T17:38:20.198Z,5.70
2023-04-24T17:40:47.090Z,6.40
2023-04-24T17:43:18.225Z,8.90
2023-04-24T17:45:45.781Z,6.80
2023-04-24T17:48:13.781Z,7.20
2023-04-24T17:50:40.861Z,7.30
2023-04-24T17:53:07.812Z,6.50
2023-04-24T17:55:34.699Z,7.80
2023-04-24T17:58:04.311Z,6.40
2023-04-24T18:00:32.040Z,7.70
2023-04-24T18:03:02.006Z,5.30
2023-04-24T18:05:29.552Z,6.10
2023-04-24T18:07:56.578Z,7.70
2023-04-24T18:10:24.266Z,6.80
2023-04-24T18:12:51.119Z,6.50
2023-04-24T18:15:21.216Z,9.40
2023-04-24T18:17:48.458Z,7.50
2023-04-24T18:20:16.037Z,8.30
2023-04-24T18:22:43.012Z,8.10
2023-04-24T18:25:10.482Z,7.80
2023-04-24T18:27:37.955Z,7.60
2023-04-24T18:30:06.144Z,8.60
2023-04-24T18:32:32.968Z,8.20
2023-04-24T18:34:59.871Z,9.00
2023-04-24T18:37:26.866Z,8.90
2023-04-24T18:39:55.688Z,8.30
2023-04-24T18:42:22.692Z,10.90
2023-04-24T18:44:49.874Z,7.50
2023-04-24T18:47:16.698Z,7.50
2023-04-24T18:49:43.698Z,10.00
2023-04-24T18:52:10.617Z,10.90
2023-04-24T18:54:37.472Z,9.00
2023-04-24T18:57:04.299Z,8.50
2023-04-24T18:59:31.179Z,13.30
2023-04-24T19:01:57.982Z,9.90
2023-04-24T19:04:24.876Z,11.80
2023-04-24T19:06:51.896Z,10.20
2023-04-24T19:09:18.746Z,13.00
2023-04-24T19:11:45.793Z,10.90
2023-04-24T19:14:13.670Z,14.20
2023-04-24T19:16:40.639Z,11.00
2023-04-24T19:19:07.820Z,11.90
2023-04-24T19:21:35.135Z,10.20
2023-04-24T19:24:01.960Z,10.80
2023-04-24T19:26:31.386Z,10.70
2023-04-24T19:28:59.242Z,11.10
2023-04-24T19:31:26.355Z,11.40
2023-04-24T19:33:53.442Z,11.30
2023-04-24T19:36:20.440Z,12.30
2023-04-24T19:38:47.750Z,11.10
2023-04-24T19:41:14.715Z,12.10
2023-04-24T19:43:41.599Z,12.50
2023-04-24T19:46:08.593Z,13.70
2023-04-24T19:48:35.473Z,15.80
2023-04-24T19:51:03.039Z,11.20
2023-04-24T19:53:30.112Z,14.40
2023-04-24T19:55:57.266Z,12.70
2023-04-24T19:58:24.221Z,14.50
2023-04-24T20:00:51.422Z,11.70
2023-04-24T20:03:31.310Z,12.50
2023-04-24T20:06:00.172Z,11.40
2023-04-24T20:08:27.097Z,9.70
2023-04-24T20:10:54.618Z,9.20
2023-04-24T20:13:21.604Z,11.50
2023-04-24T20:15:48.456Z,12.00
2023-04-24T20:18:15.904Z,10.00
2023-04-24T20:20:42.823Z,10.10
2023-04-24T20:23:09.736Z,10.40
2023-04-24T20:25:36.690Z,10.20
2023-04-24T20:28:03.628Z,12.00
2023-04-24T20:30:31.596Z,9.70
2023-04-24T20:32:58.813Z,10.70
2023-04-24T20:35:25.902Z,12.20
2023-04-24T20:37:54.240Z,11.40
2023-04-24T20:40:21.149Z,9.60
2023-04-24T20:42:48.056Z,8.80
2023-04-24T20:45:14.855Z,10.00
2023-04-24T20:47:41.732Z,11.20
2023-04-24T20:50:09.102Z,11.20
2023-04-24T20:52:36.060Z,11.50
2023-04-24T20:55:03.679Z,8.40
2023-04-24T20:57:31.242Z,12.00
2023-04-24T20:59:58.107Z,9.20
2023-04-24T21:02:25.011Z,11.70
2023-04-24T21:04:52.312Z,8.20
2023-04-24T21:07:19.162Z,12.70
2023-04-24T21:09:46.081Z,8.80
2023-04-24T21:12:12.958Z,8.90
2023-04-24T21:14:39.960Z,9.30
2023-04-24T21:17:06.807Z,11.80
2023-04-24T21:19:34.072Z,10.00
2023-04-24T21:22:01.005Z,11.20
2023-04-24T21:24:28.201Z,11.50
2023-04-24T21:26:55.073Z,14.40
2023-04-24T21:29:21.862Z,15.00
2023-04-24T21:31:48.703Z,13.30
2023-04-24T21:34:15.728Z,11.30
2023-04-24T21:36:42.638Z,8.90
2023-04-24T21:39:09.431Z,10.20
2023-04-24T21:41:36.494Z,10.50
2023-04-24T21:44:03.287Z,12.00
2023-04-24T21:46:31.105Z,11.10
2023-04-24T21:48:57.965Z,12.70
2023-04-24T21:51:24.779Z,12.60
2023-04-24T21:53:51.753Z,16.10
2023-04-24T21:56:18.768Z,12.00
2023-04-24T21:58:46.211Z,11.10
2023-04-24T22:01:15.640Z,11.50
2023-04-24T22:03:42.746Z,13.50
2023-04-24T22:06:09.714Z,13.60
2023-04-24T22:08:36.536Z,11.60
2023-04-24T22:11:04.373Z,13.60
2023-04-24T22:13:33.975Z,12.00
2023-04-24T22:16:00.955Z,11.10
2023-04-24T22:18:40.072Z,12.00
2023-04-24T22:21:13.091Z,13.00
2023-04-24T22:23:40.010Z,13.20
2023-04-24T22:26:06.912Z,13.00
2023-04-24T22:28:33.758Z,14.60
2023-04-24T22:31:00.671Z,15.40
2023-04-24T22:33:27.522Z,11.00
2023-04-24T22:35:54.357Z,12.50
2023-04-24T22:38:21.270Z,13.00
2023-04-24T22:40:48.121Z,11.60
2023-04-24T22:43:14.920Z,12.10
2023-04-24T22:45:41.773Z,11.50
2023-04-24T22:48:08.652Z,11.50
2023-04-24T22:50:35.616Z,11.50
2023-04-24T22:53:02.628Z,11.10
2023-04-24T22:55:29.736Z,9.80
2023-04-24T22:57:57.626Z,11.70
2023-04-24T23:00:24.612Z,12.10
2023-04-24T23:02:51.662Z,12.70
2023-04-24T23:05:18.560Z,11.20
2023-04-24T23:07:45.436Z,11.30
2023-04-24T23:10:12.204Z,10.50
2023-04-24T23:15:23.194Z,12.40
2023-04-24T23:17:50.075Z,11.30
2023-04-24T23:20:17.127Z,11.60
2023-04-24T23:22:44.132Z,11.00
2023-04-24T23:25:11.215Z,11.20
2023-04-24T23:27:38.132Z,11.30
2023-04-24T23:30:06.818Z,10.40
2023-04-24T23:32:33.760Z,12.10
2023-04-24T23:35:00.595Z,11.70
2023-04-24T23:37:27.517Z,10.40
2023-04-24T23:39:54.348Z,10.30
2023-04-24T23:42:21.135Z,11.50
2023-04-24T23:44:48.044Z,11.70
2023-04-24T23:47:14.849Z,13.00
2023-04-24T23:49:41.705Z,11.90
2023-04-24T23:52:08.715Z,12.00
2023-04-24T23:54:35.695Z,12.00
2023-04-24T23:57:03.237Z,12.90
2023-04-24T23:59:30.758Z,13.20
